sensor_id;sensor_type;location;lat;lon;timestamp;temperature;humidity
56123;DHT22;42426;46.104;19.656;2023-02-11T00:01:08;38.40;2201.60
56123;DHT22;42426;46.104;19.656;2023-02-11T00:03:35;38.40;2201.60
56123;DHT22;42426;46.104;19.656;2023-02-11T00:06:04;38.40;2201.60
56123;DHT22;42426;46.104;19.656;2023-02-11T00:08:30;38.50;2201.60
56123;DHT22;42426;46.104;19.656;2023-02-11T00:10:57;38.50;2201.60
56123;DHT22;42426;46.104;19.656;2023-02-11T00:13:24;38.50;2201.60
56123;DHT22;42426;46.104;19.656;2023-02-11T00:15:50;38.50;2201.60
56123;DHT22;42426;46.104;19.656;2023-02-11T00:18:16;38.50;2201.60
56123;DHT22;42426;46.104;19.656;2023-02-11T00:20:42;38.50;2201.60
56123;DHT22;42426;46.104;19.656;2023-02-11T00:23:08;38.50;2201.60
56123;DHT22;42426;46.104;19.656;2023-02-11T00:25:40;38.50;2201.60
56123;DHT22;42426;46.104;19.656;2023-02-11T00:28:07;38.60;2201.60
56123;DHT22;42426;46.104;19.656;2023-02-11T00:30:33;38.50;2201.60
56123;DHT22;42426;46.104;19.656;2023-02-11T00:32:59;38.50;2201.60
56123;DHT22;42426;46.104;19.656;2023-02-11T00:35:25;38.60;2201.60
56123;DHT22;42426;46.104;19.656;2023-02-11T00:37:52;38.60;2201.60
56123;DHT22;42426;46.104;19.656;2023-02-11T00:40:18;38.60;2201.60
56123;DHT22;42426;46.104;19.656;2023-02-11T00:42:44;38.60;2201.60
56123;DHT22;42426;46.104;19.656;2023-02-11T00:45:10;38.60;2201.60
56123;DHT22;42426;46.104;19.656;2023-02-11T00:47:36;38.70;2201.60
56123;DHT22;42426;46.104;19.656;2023-02-11T00:50:04;38.70;2201.60
56123;DHT22;42426;46.104;19.656;2023-02-11T00:52:33;38.70;2201.60
56123;DHT22;42426;46.104;19.656;2023-02-11T00:54:59;38.70;2201.60
56123;DHT22;42426;46.104;19.656;2023-02-11T00:57:24;38.70;2201.60
56123;DHT22;42426;46.104;19.656;2023-02-11T00:59:50;38.70;2201.60
56123;DHT22;42426;46.104;19.656;2023-02-11T01:02:16;38.70;2201.60
56123;DHT22;42426;46.104;19.656;2023-02-11T01:04:43;38.70;2201.60
56123;DHT22;42426;46.104;19.656;2023-02-11T01:07:09;38.70;2201.60
56123;DHT22;42426;46.104;19.656;2023-02-11T01:09:37;38.70;2201.60
56123;DHT22;42426;46.104;19.656;2023-02-11T01:12:03;38.70;2201.60
56123;DHT22;42426;46.104;19.656;2023-02-11T01:14:29;38.70;2201.60
56123;DHT22;42426;46.104;19.656;2023-02-11T01:16:54;38.70;2201.60
56123;DHT22;42426;46.104;19.656;2023-02-11T01:19:20;38.70;2201.60
56123;DHT22;42426;46.104;19.656;2023-02-11T01:21:46;38.70;2201.60
56123;DHT22;42426;46.104;19.656;2023-02-11T01:24:11;38.70;2201.60
56123;DHT22;42426;46.104;19.656;2023-02-11T01:26:37;38.80;2201.60
56123;DHT22;42426;46.104;19.656;2023-02-11T01:29:03;38.70;2201.60
56123;DHT22;42426;46.104;19.656;2023-02-11T01:31:30;38.70;2201.60
56123;DHT22;42426;46.104;19.656;2023-02-11T01:33:55;38.80;2201.60
56123;DHT22;42426;46.104;19.656;2023-02-11T01:36:21;38.80;2201.60
56123;DHT22;42426;46.104;19.656;2023-02-11T01:38:47;38.80;2201.60
56123;DHT22;42426;46.104;19.656;2023-02-11T01:41:14;38.80;2201.60
56123;DHT22;42426;46.104;19.656;2023-02-11T01:43:44;38.90;2201.60
56123;DHT22;42426;46.104;19.656;2023-02-11T01:48:51;38.90;2201.60
56123;DHT22;42426;46.104;19.656;2023-02-11T01:51:22;38.90;2201.60
56123;DHT22;42426;46.104;19.656;2023-02-11T01:53:49;38.90;2201.60
56123;DHT22;42426;46.104;19.656;2023-02-11T01:56:36;38.90;2201.60
56123;DHT22;42426;46.104;19.656;2023-02-11T02:10:23;39.10;2201.60
56123;DHT22;42426;46.104;19.656;2023-02-11T02:12:50;39.10;2201.60
56123;DHT22;42426;46.104;19.656;2023-02-11T02:15:37;39.20;2201.60
56123;DHT22;42426;46.104;19.656;2023-02-11T02:23:55;39.30;2201.60
56123;DHT22;42426;46.104;19.656;2023-02-11T02:37:04;39.30;2201.60
56123;DHT22;42426;46.104;19.656;2023-02-11T02:39:37;39.30;2201.60
56123;DHT22;42426;46.104;19.656;2023-02-11T02:42:04;39.30;2201.60
56123;DHT22;42426;46.104;19.656;2023-02-11T02:44:30;64.00;2201.60
56123;DHT22;42426;46.104;19.656;2023-02-11T02:46:56;64.00;2201.60
56123;DHT22;42426;46.104;19.656;2023-02-11T02:49:22;64.00;2201.60
56123;DHT22;42426;46.104;19.656;2023-02-11T03:08:04;64.00;2201.60
56123;DHT22;42426;46.104;19.656;2023-02-11T03:10:37;64.00;2201.60
56123;DHT22;42426;46.104;19.656;2023-02-11T03:13:05;64.10;2201.60
56123;DHT22;42426;46.104;19.656;2023-02-11T03:15:40;64.10;2201.60
56123;DHT22;42426;46.104;19.656;2023-02-11T03:18:12;64.10;2201.60
56123;DHT22;42426;46.104;19.656;2023-02-11T03:20:41;64.10;2201.60
56123;DHT22;42426;46.104;19.656;2023-02-11T03:23:28;64.10;2201.60
56123;DHT22;42426;46.104;19.656;2023-02-11T03:26:05;64.10;2201.60
56123;DHT22;42426;46.104;19.656;2023-02-11T03:29:16;64.20;2201.60
56123;DHT22;42426;46.104;19.656;2023-02-11T03:34:11;64.10;2201.60
56123;DHT22;42426;46.104;19.656;2023-02-11T03:37:07;64.20;2201.60
56123;DHT22;42426;46.104;19.656;2023-02-11T03:39:45;64.20;2201.60
56123;DHT22;42426;46.104;19.656;2023-02-11T03:42:15;64.20;2201.60
56123;DHT22;42426;46.104;19.656;2023-02-11T03:44:49;64.20;2201.60
56123;DHT22;42426;46.104;19.656;2023-02-11T03:47:19;64.20;2201.60
56123;DHT22;42426;46.104;19.656;2023-02-11T03:49:46;64.20;2201.60
56123;DHT22;42426;46.104;19.656;2023-02-11T03:52:14;64.20;2201.60
56123;DHT22;42426;46.104;19.656;2023-02-11T03:54:42;64.30;2201.60
56123;DHT22;42426;46.104;19.656;2023-02-11T03:57:10;64.30;2201.60
56123;DHT22;42426;46.104;19.656;2023-02-11T03:59:51;64.30;2201.60
56123;DHT22;42426;46.104;19.656;2023-02-11T04:02:18;64.30;2201.60
56123;DHT22;42426;46.104;19.656;2023-02-11T04:04:44;64.30;2201.60
56123;DHT22;42426;46.104;19.656;2023-02-11T04:07:11;64.30;2201.60
56123;DHT22;42426;46.104;19.656;2023-02-11T04:09:37;64.30;2201.60
56123;DHT22;42426;46.104;19.656;2023-02-11T04:12:03;64.30;2201.60
56123;DHT22;42426;46.104;19.656;2023-02-11T04:14:29;64.30;2201.60
56123;DHT22;42426;46.104;19.656;2023-02-11T04:16:54;64.30;2201.60
56123;DHT22;42426;46.104;19.656;2023-02-11T04:19:21;64.30;2201.60
56123;DHT22;42426;46.104;19.656;2023-02-11T04:21:47;64.30;2201.60
56123;DHT22;42426;46.104;19.656;2023-02-11T04:24:12;64.40;2201.60
56123;DHT22;42426;46.104;19.656;2023-02-11T04:26:38;64.40;2201.60
56123;DHT22;42426;46.104;19.656;2023-02-11T04:29:04;64.40;2201.60
56123;DHT22;42426;46.104;19.656;2023-02-11T04:31:30;64.40;2201.60
56123;DHT22;42426;46.104;19.656;2023-02-11T04:33:56;64.40;2201.60
56123;DHT22;42426;46.104;19.656;2023-02-11T04:36:21;64.40;2201.60
56123;DHT22;42426;46.104;19.656;2023-02-11T04:38:47;64.40;2201.60
56123;DHT22;42426;46.104;19.656;2023-02-11T04:41:13;64.40;2201.60
56123;DHT22;42426;46.104;19.656;2023-02-11T04:43:39;64.40;2201.60
56123;DHT22;42426;46.104;19.656;2023-02-11T04:46:04;64.50;2201.60
56123;DHT22;42426;46.104;19.656;2023-02-11T04:48:30;64.50;2201.60
56123;DHT22;42426;46.104;19.656;2023-02-11T04:50:56;64.50;2201.60
56123;DHT22;42426;46.104;19.656;2023-02-11T04:53:22;64.50;2201.60
56123;DHT22;42426;46.104;19.656;2023-02-11T04:55:48;64.50;2201.60
56123;DHT22;42426;46.104;19.656;2023-02-11T04:58:15;64.40;2201.60
56123;DHT22;42426;46.104;19.656;2023-02-11T05:00:41;64.50;2201.60
56123;DHT22;42426;46.104;19.656;2023-02-11T05:03:06;64.50;2201.60
56123;DHT22;42426;46.104;19.656;2023-02-11T05:05:32;64.50;2201.60
56123;DHT22;42426;46.104;19.656;2023-02-11T05:07:58;64.50;2201.60
56123;DHT22;42426;46.104;19.656;2023-02-11T05:10:23;64.50;2201.60
56123;DHT22;42426;46.104;19.656;2023-02-11T05:12:49;64.50;2201.60
56123;DHT22;42426;46.104;19.656;2023-02-11T05:15:16;64.50;2201.60
56123;DHT22;42426;46.104;19.656;2023-02-11T05:17:41;64.50;2201.60
56123;DHT22;42426;46.104;19.656;2023-02-11T05:20:08;64.50;2201.60
56123;DHT22;42426;46.104;19.656;2023-02-11T05:22:33;64.40;2201.60
56123;DHT22;42426;46.104;19.656;2023-02-11T05:24:59;64.50;2201.60
56123;DHT22;42426;46.104;19.656;2023-02-11T05:27:25;64.40;2201.60
56123;DHT22;42426;46.104;19.656;2023-02-11T05:29:50;64.40;2201.60
56123;DHT22;42426;46.104;19.656;2023-02-11T05:32:16;64.50;2201.60
56123;DHT22;42426;46.104;19.656;2023-02-11T05:34:42;64.50;2201.60
56123;DHT22;42426;46.104;19.656;2023-02-11T05:37:07;64.50;2201.60
56123;DHT22;42426;46.104;19.656;2023-02-11T05:39:33;64.50;2201.60
56123;DHT22;42426;46.104;19.656;2023-02-11T05:41:59;64.50;2201.60
56123;DHT22;42426;46.104;19.656;2023-02-11T05:44:24;64.50;2201.60
56123;DHT22;42426;46.104;19.656;2023-02-11T05:46:50;64.60;2201.60
56123;DHT22;42426;46.104;19.656;2023-02-11T05:49:17;64.60;2201.60
56123;DHT22;42426;46.104;19.656;2023-02-11T05:51:43;64.60;2201.60
56123;DHT22;42426;46.104;19.656;2023-02-11T05:54:09;64.60;2201.60
56123;DHT22;42426;46.104;19.656;2023-02-11T05:56:35;64.60;2201.60
56123;DHT22;42426;46.104;19.656;2023-02-11T05:59:00;64.60;2201.60
56123;DHT22;42426;46.104;19.656;2023-02-11T06:01:26;64.60;2201.60
56123;DHT22;42426;46.104;19.656;2023-02-11T06:03:52;64.50;2201.60
56123;DHT22;42426;46.104;19.656;2023-02-11T06:06:19;64.50;2201.60
56123;DHT22;42426;46.104;19.656;2023-02-11T06:08:44;64.60;2201.60
56123;DHT22;42426;46.104;19.656;2023-02-11T06:11:10;64.50;2201.60
56123;DHT22;42426;46.104;19.656;2023-02-11T06:13:36;64.50;2201.60
56123;DHT22;42426;46.104;19.656;2023-02-11T06:16:02;64.50;2201.60
56123;DHT22;42426;46.104;19.656;2023-02-11T06:18:28;64.50;2201.60
56123;DHT22;42426;46.104;19.656;2023-02-11T06:20:54;64.60;2201.60
56123;DHT22;42426;46.104;19.656;2023-02-11T06:23:21;64.60;2201.60
56123;DHT22;42426;46.104;19.656;2023-02-11T06:25:46;64.60;2201.60
56123;DHT22;42426;46.104;19.656;2023-02-11T06:28:12;64.60;2201.60
56123;DHT22;42426;46.104;19.656;2023-02-11T06:30:38;64.60;2201.60
56123;DHT22;42426;46.104;19.656;2023-02-11T06:33:04;64.50;2201.60
56123;DHT22;42426;46.104;19.656;2023-02-11T06:35:29;64.50;2201.60
56123;DHT22;42426;46.104;19.656;2023-02-11T06:37:55;64.50;2201.60
56123;DHT22;42426;46.104;19.656;2023-02-11T06:40:22;64.50;2201.60
56123;DHT22;42426;46.104;19.656;2023-02-11T06:42:47;64.50;2201.60
56123;DHT22;42426;46.104;19.656;2023-02-11T06:45:13;64.50;2201.60
56123;DHT22;42426;46.104;19.656;2023-02-11T06:47:39;64.40;2201.60
56123;DHT22;42426;46.104;19.656;2023-02-11T06:50:07;64.40;2201.60
56123;DHT22;42426;46.104;19.656;2023-02-11T06:52:35;64.50;2201.60
56123;DHT22;42426;46.104;19.656;2023-02-11T06:55:00;64.40;2201.60
56123;DHT22;42426;46.104;19.656;2023-02-11T06:57:29;64.40;2201.60
56123;DHT22;42426;46.104;19.656;2023-02-11T06:59:54;64.40;2201.60
56123;DHT22;42426;46.104;19.656;2023-02-11T07:02:20;64.30;2201.60
56123;DHT22;42426;46.104;19.656;2023-02-11T07:04:46;64.30;2201.60
56123;DHT22;42426;46.104;19.656;2023-02-11T07:07:12;64.20;2201.60
56123;DHT22;42426;46.104;19.656;2023-02-11T07:09:37;64.20;2201.60
56123;DHT22;42426;46.104;19.656;2023-02-11T07:12:03;64.20;2201.60
56123;DHT22;42426;46.104;19.656;2023-02-11T07:14:29;64.10;2201.60
56123;DHT22;42426;46.104;19.656;2023-02-11T07:16:55;64.10;2201.60
56123;DHT22;42426;46.104;19.656;2023-02-11T07:19:20;64.00;2201.60
56123;DHT22;42426;46.104;19.656;2023-02-11T07:21:46;64.00;2201.60
56123;DHT22;42426;46.104;19.656;2023-02-11T07:24:13;39.30;2201.60
56123;DHT22;42426;46.104;19.656;2023-02-11T07:26:39;39.30;2201.60
56123;DHT22;42426;46.104;19.656;2023-02-11T07:29:04;39.20;2201.60
56123;DHT22;42426;46.104;19.656;2023-02-11T07:31:30;39.10;2201.60
56123;DHT22;42426;46.104;19.656;2023-02-11T07:33:59;39.10;2201.60
56123;DHT22;42426;46.104;19.656;2023-02-11T07:36:26;39.00;2201.60
56123;DHT22;42426;46.104;19.656;2023-02-11T07:38:52;38.90;2201.60
56123;DHT22;42426;46.104;19.656;2023-02-11T07:41:19;38.90;2201.60
56123;DHT22;42426;46.104;19.656;2023-02-11T07:43:46;38.80;2201.60
56123;DHT22;42426;46.104;19.656;2023-02-11T07:46:17;38.70;2201.60
56123;DHT22;42426;46.104;19.656;2023-02-11T07:48:43;38.70;2201.60
56123;DHT22;42426;46.104;19.656;2023-02-11T07:51:22;38.60;2201.60
56123;DHT22;42426;46.104;19.656;2023-02-11T07:53:48;38.50;2201.60
56123;DHT22;42426;46.104;19.656;2023-02-11T07:56:15;38.40;2201.60
56123;DHT22;42426;46.104;19.656;2023-02-11T07:58:42;13.60;2201.60
56123;DHT22;42426;46.104;19.656;2023-02-11T08:01:19;13.70;2201.60
56123;DHT22;42426;46.104;19.656;2023-02-11T08:03:47;13.60;2201.60
56123;DHT22;42426;46.104;19.656;2023-02-11T08:06:15;13.50;2201.60
56123;DHT22;42426;46.104;19.656;2023-02-11T08:08:41;13.40;2201.60
56123;DHT22;42426;46.104;19.656;2023-02-11T08:11:25;13.30;2201.60
56123;DHT22;42426;46.104;19.656;2023-02-11T08:13:51;13.10;2201.60
56123;DHT22;42426;46.104;19.656;2023-02-11T08:16:25;13.00;2201.60
56123;DHT22;42426;46.104;19.656;2023-02-11T08:18:51;13.00;2201.60
56123;DHT22;42426;46.104;19.656;2023-02-11T08:21:18;12.90;2201.60
56123;DHT22;42426;46.104;19.656;2023-02-11T08:23:45;0.10;2201.60
56123;DHT22;42426;46.104;19.656;2023-02-11T08:26:22;0.20;2201.60
56123;DHT22;42426;46.104;19.656;2023-02-11T08:28:50;0.30;2201.60
56123;DHT22;42426;46.104;19.656;2023-02-11T08:31:21;0.40;2201.60
56123;DHT22;42426;46.104;19.656;2023-02-11T08:33:47;0.50;2201.60
56123;DHT22;42426;46.104;19.656;2023-02-11T08:36:16;0.60;2201.60
56123;DHT22;42426;46.104;19.656;2023-02-11T08:38:42;0.70;2201.60
56123;DHT22;42426;46.104;19.656;2023-02-11T08:41:09;0.80;2201.60
56123;DHT22;42426;46.104;19.656;2023-02-11T08:43:37;0.90;2201.60
56123;DHT22;42426;46.104;19.656;2023-02-11T08:46:07;25.70;2201.60
56123;DHT22;42426;46.104;19.656;2023-02-11T08:48:32;25.80;2201.60
56123;DHT22;42426;46.104;19.656;2023-02-11T08:50:58;25.80;2201.60
56123;DHT22;42426;46.104;19.656;2023-02-11T08:53:24;25.90;2201.60
56123;DHT22;42426;46.104;19.656;2023-02-11T08:55:51;26.00;2201.60
56123;DHT22;42426;46.104;19.656;2023-02-11T08:58:17;26.10;2201.60
56123;DHT22;42426;46.104;19.656;2023-02-11T09:00:43;26.20;2201.60
56123;DHT22;42426;46.104;19.656;2023-02-11T09:03:10;26.30;2201.60
56123;DHT22;42426;46.104;19.656;2023-02-11T09:05:42;26.30;2201.60
56123;DHT22;42426;46.104;19.656;2023-02-11T09:08:07;26.40;2201.60
56123;DHT22;42426;46.104;19.656;2023-02-11T09:10:33;26.50;2201.60
56123;DHT22;42426;46.104;19.656;2023-02-11T09:12:59;51.20;2227.20
56123;DHT22;42426;46.104;19.656;2023-02-11T09:15:25;51.30;2227.20
56123;DHT22;42426;46.104;19.656;2023-02-11T09:17:51;51.30;2227.20
56123;DHT22;42426;46.104;19.656;2023-02-11T09:20:17;51.30;2227.20
56123;DHT22;42426;46.104;19.656;2023-02-11T09:22:43;51.50;2227.20
56123;DHT22;42426;46.104;19.656;2023-02-11T09:25:09;51.50;2227.20
56123;DHT22;42426;46.104;19.656;2023-02-11T09:27:35;51.70;2227.20
56123;DHT22;42426;46.104;19.656;2023-02-11T09:30:01;51.70;2227.20
56123;DHT22;42426;46.104;19.656;2023-02-11T09:32:27;51.70;2227.20
56123;DHT22;42426;46.104;19.656;2023-02-11T09:34:53;51.80;2227.20
56123;DHT22;42426;46.104;19.656;2023-02-11T09:37:19;51.80;2227.20
56123;DHT22;42426;46.104;19.656;2023-02-11T09:39:46;51.90;2227.20
56123;DHT22;42426;46.104;19.656;2023-02-11T09:44:50;76.80;2227.20
56123;DHT22;42426;46.104;19.656;2023-02-11T09:47:34;76.90;2227.20
56123;DHT22;42426;46.104;19.656;2023-02-11T09:50:06;77.10;2227.20
56123;DHT22;42426;46.104;19.656;2023-02-11T09:52:38;77.20;2201.60
56123;DHT22;42426;46.104;19.656;2023-02-11T09:55:25;77.30;2201.60
56123;DHT22;42426;46.104;19.656;2023-02-11T09:57:51;77.40;2201.60
56123;DHT22;42426;46.104;19.656;2023-02-11T10:01:25;77.40;2201.60
56123;DHT22;42426;46.104;19.656;2023-02-11T10:11:51;102.50;2073.60
56123;DHT22;42426;46.104;19.656;2023-02-11T10:22:47;102.80;1971.20
56123;DHT22;42426;46.104;19.656;2023-02-11T10:25:47;102.80;1996.80
56123;DHT22;42426;46.104;19.656;2023-02-11T10:28:21;102.90;1971.20
56123;DHT22;42426;46.104;19.656;2023-02-11T10:30:59;103.00;1945.60
56123;DHT22;42426;46.104;19.656;2023-02-11T10:33:50;103.00;1920.00
56123;DHT22;42426;46.104;19.656;2023-02-11T10:36:18;103.20;1894.40
56123;DHT22;42426;46.104;19.656;2023-02-11T10:38:45;103.20;1894.40
56123;DHT22;42426;46.104;19.656;2023-02-11T10:41:20;103.30;1868.80
56123;DHT22;42426;46.104;19.656;2023-02-11T10:43:48;128.00;1894.40
56123;DHT22;42426;46.104;19.656;2023-02-11T10:46:18;128.10;1894.40
56123;DHT22;42426;46.104;19.656;2023-02-11T10:48:48;128.20;1868.80
56123;DHT22;42426;46.104;19.656;2023-02-11T10:51:21;128.20;1843.20
56123;DHT22;42426;46.104;19.656;2023-02-11T10:54:16;128.30;1868.80
56123;DHT22;42426;46.104;19.656;2023-02-11T10:56:46;128.40;1817.60
56123;DHT22;42426;46.104;19.656;2023-02-11T10:59:24;128.50;1792.00
56123;DHT22;42426;46.104;19.656;2023-02-11T11:10:00;128.70;1715.20
56123;DHT22;42426;46.104;19.656;2023-02-11T11:17:41;128.60;1740.80
56123;DHT22;42426;46.104;19.656;2023-02-11T11:20:27;128.60;1715.20
56123;DHT22;42426;46.104;19.656;2023-02-11T11:23:17;128.60;1740.80
56123;DHT22;42426;46.104;19.656;2023-02-11T11:25:57;128.50;1740.80
56123;DHT22;42426;46.104;19.656;2023-02-11T11:28:25;128.50;1740.80
56123;DHT22;42426;46.104;19.656;2023-02-11T11:30:54;128.50;1740.80
56123;DHT22;42426;46.104;19.656;2023-02-11T11:33:23;128.60;1740.80
56123;DHT22;42426;46.104;19.656;2023-02-11T11:36:02;128.60;1740.80
56123;DHT22;42426;46.104;19.656;2023-02-11T11:38:29;128.70;1715.20
56123;DHT22;42426;46.104;19.656;2023-02-11T11:46:38;128.80;1715.20
56123;DHT22;42426;46.104;19.656;2023-02-11T11:51:34;153.60;1715.20
56123;DHT22;42426;46.104;19.656;2023-02-11T11:54:06;153.60;1715.20
56123;DHT22;42426;46.104;19.656;2023-02-11T11:56:35;153.70;1689.60
56123;DHT22;42426;46.104;19.656;2023-02-11T11:59:10;153.80;1664.00
56123;DHT22;42426;46.104;19.656;2023-02-11T12:02:09;153.80;1664.00
56123;DHT22;42426;46.104;19.656;2023-02-11T12:15:54;154.00;1638.40
56123;DHT22;42426;46.104;19.656;2023-02-11T12:20:53;154.00;1612.80
56123;DHT22;42426;46.104;19.656;2023-02-11T12:26:18;154.10;1587.20
56123;DHT22;42426;46.104;19.656;2023-02-11T12:29:19;154.10;1587.20
56123;DHT22;42426;46.104;19.656;2023-02-11T12:32:16;154.20;1612.80
56123;DHT22;42426;46.104;19.656;2023-02-11T12:43:23;179.20;1536.00
56123;DHT22;42426;46.104;19.656;2023-02-11T13:00:37;179.40;1510.40
56123;DHT22;42426;46.104;19.656;2023-02-11T13:03:11;179.40;1510.40
56123;DHT22;42426;46.104;19.656;2023-02-11T13:11:36;179.40;1484.80
56123;DHT22;42426;46.104;19.656;2023-02-11T13:16:45;179.40;1484.80
56123;DHT22;42426;46.104;19.656;2023-02-11T13:24:42;179.40;1484.80
56123;DHT22;42426;46.104;19.656;2023-02-11T13:27:54;179.50;1484.80
56123;DHT22;42426;46.104;19.656;2023-02-11T13:30:36;179.50;1484.80
56123;DHT22;42426;46.104;19.656;2023-02-11T13:33:35;179.50;1484.80
56123;DHT22;42426;46.104;19.656;2023-02-11T13:38:28;179.50;1510.40
56123;DHT22;42426;46.104;19.656;2023-02-11T13:43:34;179.50;1510.40
56123;DHT22;42426;46.104;19.656;2023-02-11T13:48:40;179.50;1510.40
56123;DHT22;42426;46.104;19.656;2023-02-11T13:51:12;179.50;1510.40
56123;DHT22;42426;46.104;19.656;2023-02-11T13:53:50;179.40;1510.40
56123;DHT22;42426;46.104;19.656;2023-02-11T13:56:23;179.30;1536.00
56123;DHT22;42426;46.104;19.656;2023-02-11T13:58:52;179.20;1536.00
56123;DHT22;42426;46.104;19.656;2023-02-11T14:04:22;179.20;1536.00
56123;DHT22;42426;46.104;19.656;2023-02-11T14:13:27;179.30;1536.00
56123;DHT22;42426;46.104;19.656;2023-02-11T14:16:22;179.20;1536.00
56123;DHT22;42426;46.104;19.656;2023-02-11T14:21:18;179.20;1561.60
56123;DHT22;42426;46.104;19.656;2023-02-11T14:23:45;179.20;1536.00
56123;DHT22;42426;46.104;19.656;2023-02-11T14:31:41;154.50;1561.60
56123;DHT22;42426;46.104;19.656;2023-02-11T14:40:57;154.40;1561.60
56123;DHT22;42426;46.104;19.656;2023-02-11T14:43:22;154.30;1587.20
56123;DHT22;42426;46.104;19.656;2023-02-11T14:45:55;154.20;1587.20
56123;DHT22;42426;46.104;19.656;2023-02-11T14:48:32;154.20;1587.20
56123;DHT22;42426;46.104;19.656;2023-02-11T14:51:09;154.20;1587.20
56123;DHT22;42426;46.104;19.656;2023-02-11T14:53:42;154.20;1587.20
56123;DHT22;42426;46.104;19.656;2023-02-11T14:56:22;154.20;1587.20
56123;DHT22;42426;46.104;19.656;2023-02-11T14:58:52;154.20;1587.20
56123;DHT22;42426;46.104;19.656;2023-02-11T15:03:48;154.20;1587.20
56123;DHT22;42426;46.104;19.656;2023-02-11T15:06:20;154.20;1587.20
56123;DHT22;42426;46.104;19.656;2023-02-11T15:09:13;154.20;1612.80
56123;DHT22;42426;46.104;19.656;2023-02-11T15:11:43;154.20;1587.20
56123;DHT22;42426;46.104;19.656;2023-02-11T15:14:21;154.20;1587.20
56123;DHT22;42426;46.104;19.656;2023-02-11T15:16:49;154.10;1612.80
56123;DHT22;42426;46.104;19.656;2023-02-11T15:21:44;154.10;1587.20
56123;DHT22;42426;46.104;19.656;2023-02-11T15:24:26;154.10;1612.80
56123;DHT22;42426;46.104;19.656;2023-02-11T15:29:39;153.90;1612.80
56123;DHT22;42426;46.104;19.656;2023-02-11T15:34:35;153.80;1612.80
56123;DHT22;42426;46.104;19.656;2023-02-11T15:37:02;153.70;1638.40
56123;DHT22;42426;46.104;19.656;2023-02-11T15:39:47;153.60;1638.40
56123;DHT22;42426;46.104;19.656;2023-02-11T15:42:29;128.90;1664.00
56123;DHT22;42426;46.104;19.656;2023-02-11T15:47:50;128.80;1664.00
56123;DHT22;42426;46.104;19.656;2023-02-11T15:50:22;128.60;1689.60
56123;DHT22;42426;46.104;19.656;2023-02-11T15:52:49;128.50;1715.20
56123;DHT22;42426;46.104;19.656;2023-02-11T15:55:16;128.40;1715.20
56123;DHT22;42426;46.104;19.656;2023-02-11T15:57:55;128.30;1715.20
56123;DHT22;42426;46.104;19.656;2023-02-11T16:00:23;128.20;1740.80
56123;DHT22;42426;46.104;19.656;2023-02-11T16:02:53;128.10;1766.40
56123;DHT22;42426;46.104;19.656;2023-02-11T16:05:28;128.00;1766.40
56123;DHT22;42426;46.104;19.656;2023-02-11T16:07:54;103.30;1766.40
56123;DHT22;42426;46.104;19.656;2023-02-11T16:10:39;103.30;1792.00
56123;DHT22;42426;46.104;19.656;2023-02-11T16:13:18;103.20;1792.00
56123;DHT22;42426;46.104;19.656;2023-02-11T16:15:51;103.10;1792.00
56123;DHT22;42426;46.104;19.656;2023-02-11T16:20:53;103.00;1817.60
56123;DHT22;42426;46.104;19.656;2023-02-11T16:23:37;103.00;1843.20
56123;DHT22;42426;46.104;19.656;2023-02-11T16:26:31;102.90;1843.20
56123;DHT22;42426;46.104;19.656;2023-02-11T16:29:13;102.80;1843.20
56123;DHT22;42426;46.104;19.656;2023-02-11T16:31:42;102.70;1843.20
56123;DHT22;42426;46.104;19.656;2023-02-11T16:34:24;102.70;1868.80
56123;DHT22;42426;46.104;19.656;2023-02-11T16:36:51;102.60;1868.80
56123;DHT22;42426;46.104;19.656;2023-02-11T16:39:18;102.60;1868.80
56123;DHT22;42426;46.104;19.656;2023-02-11T16:41:46;102.50;1894.40
56123;DHT22;42426;46.104;19.656;2023-02-11T16:44:15;102.50;1894.40
56123;DHT22;42426;46.104;19.656;2023-02-11T16:46:42;102.50;1894.40
56123;DHT22;42426;46.104;19.656;2023-02-11T16:49:31;102.40;1894.40
56123;DHT22;42426;46.104;19.656;2023-02-11T16:51:58;102.40;1868.80
56123;DHT22;42426;46.104;19.656;2023-02-11T16:54:26;102.40;1868.80
56123;DHT22;42426;46.104;19.656;2023-02-11T16:56:52;102.40;1868.80
56123;DHT22;42426;46.104;19.656;2023-02-11T16:59:18;102.40;1894.40
56123;DHT22;42426;46.104;19.656;2023-02-11T17:01:44;77.70;1894.40
56123;DHT22;42426;46.104;19.656;2023-02-11T17:04:22;77.60;1894.40
56123;DHT22;42426;46.104;19.656;2023-02-11T17:06:48;77.60;1894.40
56123;DHT22;42426;46.104;19.656;2023-02-11T17:09:22;77.60;1894.40
56123;DHT22;42426;46.104;19.656;2023-02-11T17:11:48;77.50;1920.00
56123;DHT22;42426;46.104;19.656;2023-02-11T17:14:15;77.50;1920.00
56123;DHT22;42426;46.104;19.656;2023-02-11T17:16:42;77.40;1945.60
56123;DHT22;42426;46.104;19.656;2023-02-11T17:19:11;77.30;1920.00
56123;DHT22;42426;46.104;19.656;2023-02-11T17:21:43;77.30;1945.60
56123;DHT22;42426;46.104;19.656;2023-02-11T17:24:10;77.30;1945.60
56123;DHT22;42426;46.104;19.656;2023-02-11T17:26:37;77.20;1945.60
56123;DHT22;42426;46.104;19.656;2023-02-11T17:29:08;77.10;1971.20
56123;DHT22;42426;46.104;19.656;2023-02-11T17:31:34;77.10;1971.20
56123;DHT22;42426;46.104;19.656;2023-02-11T17:34:00;77.10;1971.20
56123;DHT22;42426;46.104;19.656;2023-02-11T17:36:26;77.00;1996.80
56123;DHT22;42426;46.104;19.656;2023-02-11T17:38:53;77.00;1996.80
56123;DHT22;42426;46.104;19.656;2023-02-11T17:41:19;76.90;1996.80
56123;DHT22;42426;46.104;19.656;2023-02-11T17:43:45;76.90;1996.80
56123;DHT22;42426;46.104;19.656;2023-02-11T17:46:10;76.80;2022.40
56123;DHT22;42426;46.104;19.656;2023-02-11T17:48:37;76.80;2022.40
56123;DHT22;42426;46.104;19.656;2023-02-11T17:51:04;76.80;2022.40
56123;DHT22;42426;46.104;19.656;2023-02-11T17:53:30;76.80;2022.40
56123;DHT22;42426;46.104;19.656;2023-02-11T17:55:56;52.10;2048.00
56123;DHT22;42426;46.104;19.656;2023-02-11T17:58:22;52.10;2048.00
56123;DHT22;42426;46.104;19.656;2023-02-11T18:00:48;52.00;2073.60
56123;DHT22;42426;46.104;19.656;2023-02-11T18:03:14;52.00;2073.60
56123;DHT22;42426;46.104;19.656;2023-02-11T18:05:40;52.00;2073.60
56123;DHT22;42426;46.104;19.656;2023-02-11T18:08:06;52.00;2073.60
56123;DHT22;42426;46.104;19.656;2023-02-11T18:10:32;52.00;2073.60
56123;DHT22;42426;46.104;19.656;2023-02-11T18:12:59;52.00;2073.60